createdAt,value
2023-04-17T00:00:50.190Z,6.12
2023-04-17T00:03:18.046Z,6.11
2023-04-17T00:05:46.016Z,6.08
2023-04-17T00:08:15.324Z,6.08
2023-04-17T00:10:46.983Z,6.09
2023-04-17T00:13:20.980Z,6.12
2023-04-17T00:15:48.662Z,6.14
2023-04-17T00:18:16.329Z,6.15
2023-04-17T00:20:44.397Z,6.16
2023-04-17T00:23:12.358Z,6.17
2023-04-17T00:25:40.049Z,6.18
2023-04-17T00:28:07.870Z,6.19
2023-04-17T00:30:35.543Z,6.21
2023-04-17T00:33:03.353Z,6.23
2023-04-17T00:35:31.126Z,6.24
2023-04-17T00:37:58.704Z,6.25
2023-04-17T00:40:26.230Z,6.27
2023-04-17T00:42:56.008Z,6.28
2023-04-17T00:45:23.870Z,6.30
2023-04-17T00:47:51.739Z,6.32
2023-04-17T00:50:19.330Z,6.34
2023-04-17T00:52:47.894Z,6.36
2023-04-17T00:55:15.483Z,6.36
2023-04-17T00:57:44.477Z,6.37
2023-04-17T01:00:12.485Z,6.37
2023-04-17T01:02:40.946Z,6.38
2023-04-17T01:05:08.927Z,6.37
2023-04-17T01:07:36.604Z,6.37
2023-04-17T01:10:04.893Z,6.38
2023-04-17T01:12:33.131Z,6.38
2023-04-17T01:15:00.767Z,6.37
2023-04-17T01:17:30.378Z,6.37
2023-04-17T01:19:58.294Z,6.37
2023-04-17T01:22:26.274Z,6.38
2023-04-17T01:24:56.258Z,6.39
2023-04-17T01:27:25.822Z,6.39
2023-04-17T01:29:53.317Z,6.38
2023-04-17T01:32:21.370Z,6.38
2023-04-17T01:34:49.377Z,6.38
2023-04-17T01:37:16.881Z,6.38
2023-04-17T01:39:44.435Z,6.37
2023-04-17T01:42:12.156Z,6.37
2023-04-17T01:44:39.790Z,6.39
2023-04-17T01:47:07.716Z,6.40
2023-04-17T01:49:35.449Z,6.40
2023-04-17T01:52:03.011Z,6.40
2023-04-17T01:54:31.001Z,6.42
2023-04-17T01:56:58.596Z,6.43
2023-04-17T01:59:26.815Z,6.46
2023-04-17T02:01:54.902Z,6.49
2023-04-17T02:04:22.458Z,6.53
2023-04-17T02:06:50.355Z,6.55
2023-04-17T02:09:18.605Z,6.57
2023-04-17T02:11:46.338Z,6.58
2023-04-17T02:14:13.751Z,6.59
2023-04-17T02:16:45.583Z,6.59
2023-04-17T02:19:13.478Z,6.58
2023-04-17T02:21:41.961Z,6.58
2023-04-17T02:24:09.495Z,6.59
2023-04-17T02:26:37.309Z,6.59
2023-04-17T02:29:05.928Z,6.60
2023-04-17T02:31:33.560Z,6.61
2023-04-17T02:34:01.068Z,6.63
2023-04-17T02:36:28.642Z,6.65
2023-04-17T02:38:56.627Z,6.66
2023-04-17T02:41:24.140Z,6.68
2023-04-17T02:43:51.606Z,6.71
2023-04-17T02:46:19.131Z,6.73
2023-04-17T02:48:46.595Z,6.74
2023-04-17T02:51:14.030Z,6.76
2023-04-17T02:53:41.760Z,6.77
2023-04-17T02:56:09.353Z,6.79
2023-04-17T02:58:37.330Z,6.80
2023-04-17T03:01:06.395Z,6.81
2023-04-17T03:03:38.644Z,6.81
2023-04-17T03:06:09.283Z,6.83
2023-04-17T03:08:38.185Z,6.85
2023-04-17T03:11:05.961Z,6.88
2023-04-17T03:13:36.849Z,6.90
2023-04-17T03:16:05.134Z,6.93
2023-04-17T03:18:34.988Z,6.95
2023-04-17T03:21:02.787Z,6.97
2023-04-17T03:23:30.474Z,6.98
2023-04-17T03:25:58.378Z,6.99
2023-04-17T03:28:26.817Z,7.00
2023-04-17T03:30:57.691Z,7.00
2023-04-17T03:33:25.616Z,7.02
2023-04-17T03:35:53.944Z,7.03
2023-04-17T03:38:21.823Z,7.04
2023-04-17T03:40:49.369Z,7.05
2023-04-17T03:43:16.755Z,7.06
2023-04-17T03:45:46.428Z,7.08
2023-04-17T03:48:14.146Z,7.11
2023-04-17T03:50:42.141Z,7.13
2023-04-17T03:53:09.628Z,7.16
2023-04-17T03:55:37.800Z,7.18
2023-04-17T03:58:05.536Z,7.20
2023-04-17T04:00:33.651Z,7.23
2023-04-17T04:03:03.993Z,7.25
2023-04-17T04:05:37.908Z,7.28
2023-04-17T04:08:05.395Z,7.32
2023-04-17T04:10:37.766Z,7.35
2023-04-17T04:13:05.631Z,7.37
2023-04-17T04:15:32.907Z,7.40
2023-04-17T04:18:02.786Z,7.42
2023-04-17T04:20:31.611Z,7.45
2023-04-17T04:23:09.163Z,7.48
2023-04-17T04:25:41.568Z,7.52
2023-04-17T04:28:23.108Z,7.54
2023-04-17T04:30:51.105Z,7.56
2023-04-17T04:33:20.012Z,7.58
2023-04-17T04:35:47.880Z,7.59
2023-04-17T04:38:16.808Z,7.60
2023-04-17T04:40:51.854Z,7.62
2023-04-17T04:43:22.295Z,7.66
2023-04-17T04:45:53.031Z,7.70
2023-04-17T04:48:20.617Z,7.72
2023-04-17T04:50:47.895Z,7.76
2023-04-17T04:53:15.537Z,7.78
2023-04-17T04:55:47.643Z,7.81
2023-04-17T04:58:15.096Z,7.83
2023-04-17T05:00:43.415Z,7.86
2023-04-17T05:03:13.594Z,7.87
2023-04-17T05:05:43.048Z,7.90
2023-04-17T05:08:12.174Z,7.91
2023-04-17T05:10:39.947Z,7.95
2023-04-17T05:13:08.185Z,7.98
2023-04-17T05:15:36.013Z,8.00
2023-04-17T05:18:04.136Z,8.03
2023-04-17T05:20:33.278Z,8.08
2023-04-17T05:23:00.640Z,8.13
2023-04-17T05:25:27.960Z,8.20
2023-04-17T05:27:55.942Z,8.28
2023-04-17T05:30:23.486Z,8.38
2023-04-17T05:32:55.729Z,8.49
2023-04-17T05:35:31.975Z,8.61
2023-04-17T05:37:59.922Z,8.71
2023-04-17T05:40:27.177Z,8.79
2023-04-17T05:42:55.377Z,8.88
2023-04-17T05:45:24.947Z,8.97
2023-04-17T05:47:53.096Z,9.02
2023-04-17T05:50:21.178Z,9.08
2023-04-17T05:52:48.747Z,9.12
2023-04-17T05:55:16.657Z,9.17
2023-04-17T05:57:44.192Z,9.20
2023-04-17T06:00:12.698Z,9.21
2023-04-17T06:02:43.070Z,9.23
2023-04-17T06:05:14.356Z,9.23
2023-04-17T06:07:42.554Z,9.19
2023-04-17T06:10:10.126Z,9.15
2023-04-17T06:12:38.112Z,9.11
2023-04-17T06:15:09.057Z,9.11
2023-04-17T06:17:37.360Z,9.15
2023-04-17T06:20:07.959Z,9.21
2023-04-17T06:22:35.850Z,9.23
2023-04-17T06:25:03.368Z,9.26
2023-04-17T06:27:31.727Z,9.30
2023-04-17T06:29:59.187Z,9.37
2023-04-17T06:32:26.972Z,9.43
2023-04-17T06:34:59.584Z,9.47
2023-04-17T06:37:47.354Z,9.57
2023-04-17T06:40:15.356Z,9.67
2023-04-17T06:42:42.816Z,9.73
2023-04-17T06:45:13.322Z,9.83
2023-04-17T06:47:42.180Z,9.97
2023-04-17T06:50:09.774Z,10.16
2023-04-17T06:52:37.348Z,10.34
2023-04-17T06:55:05.034Z,10.45
2023-04-17T06:57:33.710Z,10.54
2023-04-17T07:00:01.041Z,10.62
2023-04-17T07:02:28.743Z,10.64
2023-04-17T07:04:56.279Z,10.57
2023-04-17T07:07:23.602Z,10.45
2023-04-17T07:09:51.123Z,10.37
2023-04-17T07:12:18.590Z,10.28
2023-04-17T07:14:45.926Z,10.19
2023-04-17T07:17:13.592Z,10.18
2023-04-17T07:19:40.810Z,10.27
2023-04-17T07:22:09.962Z,10.39
2023-04-17T07:24:37.284Z,10.41
2023-04-17T07:27:04.846Z,10.42
2023-04-17T07:29:32.377Z,10.48
2023-04-17T07:31:59.591Z,10.54
2023-04-17T07:34:30.725Z,10.54
2023-04-17T07:36:58.020Z,10.52
2023-04-17T07:39:28.063Z,10.49
2023-04-17T07:41:55.980Z,10.48
2023-04-17T07:44:23.448Z,10.45
2023-04-17T07:46:50.857Z,10.40
2023-04-17T07:49:18.493Z,10.35
2023-04-17T07:51:46.477Z,10.28
2023-04-17T07:54:13.803Z,10.24
2023-04-17T07:56:40.985Z,10.23
2023-04-17T07:59:09.256Z,10.30
2023-04-17T08:01:37.479Z,10.41
2023-04-17T08:04:05.177Z,10.46
2023-04-17T08:06:33.773Z,10.50
2023-04-17T08:09:02.108Z,10.54
2023-04-17T08:11:29.746Z,10.59
2023-04-17T08:13:57.182Z,10.67
2023-04-17T08:16:24.677Z,10.77
2023-04-17T08:18:51.884Z,10.88
2023-04-17T08:21:19.217Z,10.96
2023-04-17T08:23:47.112Z,10.94
2023-04-17T08:26:14.298Z,10.94
2023-04-17T08:28:41.483Z,10.97
2023-04-17T08:31:10.214Z,10.98
2023-04-17T08:33:37.468Z,11.04
2023-04-17T08:36:06.545Z,11.11
2023-04-17T08:41:23.553Z,11.38
2023-04-17T08:43:51.087Z,11.57
2023-04-17T08:46:21.044Z,11.80
2023-04-17T08:48:48.986Z,11.97
2023-04-17T08:51:17.464Z,12.03
2023-04-17T08:53:44.659Z,12.04
2023-04-17T08:56:11.807Z,11.96
2023-04-17T08:58:39.131Z,11.87
2023-04-17T09:01:10.812Z,11.78
2023-04-17T09:03:45.448Z,11.76
2023-04-17T09:06:13.369Z,11.82
2023-04-17T09:09:07.704Z,11.78
2023-04-17T09:11:35.533Z,11.70
2023-04-17T09:14:02.726Z,11.64
2023-04-17T09:16:32.280Z,11.51
2023-04-17T09:19:06.673Z,11.37
2023-04-17T09:21:34.710Z,11.26
2023-04-17T09:24:02.891Z,11.16
2023-04-17T09:26:31.327Z,11.11
2023-04-17T09:29:07.453Z,11.09
2023-04-17T09:31:34.784Z,11.10
2023-04-17T09:34:02.914Z,11.13
2023-04-17T09:36:31.049Z,11.14
2023-04-17T09:39:00.522Z,11.14
2023-04-17T09:41:38.845Z,11.15
2023-04-17T09:44:06.424Z,11.18
2023-04-17T09:46:37.767Z,11.16
2023-04-17T09:49:15.338Z,11.13
2023-04-17T09:51:42.682Z,11.10
2023-04-17T09:54:11.348Z,11.13
2023-04-17T09:56:39.620Z,11.17
2023-04-17T09:59:07.119Z,11.22
2023-04-17T10:01:35.116Z,11.21
2023-04-17T10:04:03.270Z,11.17
2023-04-17T10:06:31.089Z,11.14
2023-04-17T10:08:58.372Z,11.13
2023-04-17T10:11:26.224Z,11.13
2023-04-17T10:13:59.754Z,11.15
2023-04-17T10:16:37.139Z,11.16
2023-04-17T10:19:23.654Z,11.18
2023-04-17T10:22:11.487Z,11.22
2023-04-17T10:24:39.075Z,11.29
2023-04-17T10:27:35.920Z,11.41
2023-04-17T10:30:03.898Z,11.60
2023-04-17T10:32:32.276Z,11.76
2023-04-17T10:35:00.659Z,11.86
2023-04-17T10:37:46.773Z,11.95
2023-04-17T10:40:20.399Z,12.05
2023-04-17T10:43:06.257Z,12.11
2023-04-17T10:45:53.562Z,12.17
2023-04-17T10:48:30.890Z,12.23
2023-04-17T10:50:58.576Z,12.26
2023-04-17T10:53:38.065Z,12.29
2023-04-17T10:56:05.564Z,12.33
2023-04-17T10:58:32.933Z,12.40
2023-04-17T11:01:03.450Z,12.42
2023-04-17T11:03:31.075Z,12.44
2023-04-17T11:05:58.670Z,12.48
2023-04-17T11:08:26.551Z,12.53
2023-04-17T11:10:56.615Z,12.57
2023-04-17T11:13:24.086Z,12.63
2023-04-17T11:15:52.341Z,12.68
2023-04-17T11:18:21.001Z,12.72
2023-04-17T11:20:49.650Z,12.77
2023-04-17T11:23:17.508Z,12.82
2023-04-17T11:25:45.098Z,12.84
2023-04-17T11:28:13.830Z,12.90
2023-04-17T11:30:44.239Z,12.97
2023-04-17T11:33:15.928Z,13.07
2023-04-17T11:35:43.676Z,13.18
2023-04-17T11:38:17.317Z,13.27
2023-04-17T11:40:45.744Z,13.35
2023-04-17T11:43:13.653Z,13.43
2023-04-17T11:45:42.089Z,13.48
2023-04-17T11:48:12.993Z,13.52
2023-04-17T11:50:41.063Z,13.58
2023-04-17T11:53:08.377Z,13.63
2023-04-17T11:55:35.977Z,13.66
2023-04-17T11:58:05.878Z,13.66
2023-04-17T12:00:33.816Z,13.65
2023-04-17T12:03:01.677Z,13.69
2023-04-17T12:05:29.753Z,13.75
2023-04-17T12:08:15.911Z,13.81
2023-04-17T12:10:43.730Z,13.89
2023-04-17T12:13:11.334Z,13.94
2023-04-17T12:15:38.833Z,13.97
2023-04-17T12:18:08.476Z,13.97
2023-04-17T12:20:36.341Z,13.94
2023-04-17T12:23:04.055Z,13.93
2023-04-17T12:25:31.759Z,13.94
2023-04-17T12:27:59.234Z,13.92
2023-04-17T12:30:26.911Z,13.91
2023-04-17T12:32:54.616Z,13.90
2023-04-17T12:35:22.285Z,13.94
2023-04-17T12:37:51.159Z,13.96
2023-04-17T12:40:18.946Z,13.97
2023-04-17T12:42:49.620Z,13.99
2023-04-17T12:45:17.339Z,14.03
2023-04-17T12:47:44.715Z,14.08
2023-04-17T12:50:12.193Z,14.13
2023-04-17T12:52:40.125Z,14.15
2023-04-17T12:55:07.750Z,14.17
2023-04-17T12:57:36.287Z,14.18
2023-04-17T13:00:06.070Z,14.18
2023-04-17T13:02:34.221Z,14.19
2023-04-17T13:05:02.367Z,14.19
2023-04-17T13:07:30.251Z,14.20
2023-04-17T13:09:57.748Z,14.22
2023-04-17T13:12:25.558Z,14.25
2023-04-17T13:14:53.124Z,14.27
2023-04-17T13:17:21.236Z,14.25
2023-04-17T13:19:48.624Z,14.24
2023-04-17T13:22:17.421Z,14.25
2023-04-17T13:24:44.908Z,14.25
2023-04-17T13:27:12.153Z,14.26
2023-04-17T13:29:39.489Z,14.28
2023-04-17T13:32:06.889Z,14.28
2023-04-17T13:34:34.011Z,14.27
2023-04-17T13:37:01.146Z,14.24
2023-04-17T13:39:28.643Z,14.23
2023-04-17T13:41:57.930Z,14.20
2023-04-17T13:44:25.270Z,14.17
2023-04-17T13:46:52.907Z,14.17
2023-04-17T13:49:20.788Z,14.18
2023-04-17T13:51:48.236Z,14.16
2023-04-17T13:54:16.049Z,14.12
2023-04-17T13:56:45.275Z,14.10
2023-04-17T13:59:12.888Z,14.09
2023-04-17T14:01:40.902Z,14.06
2023-04-17T14:04:09.090Z,14.03
2023-04-17T14:06:36.860Z,14.01
2023-04-17T14:09:07.314Z,13.98
2023-04-17T14:11:34.696Z,13.95
2023-04-17T14:14:01.926Z,13.93
2023-04-17T14:16:29.486Z,13.92
2023-04-17T14:18:59.461Z,13.90
2023-04-17T14:21:32.516Z,13.88
2023-04-17T14:23:59.932Z,13.86
2023-04-17T14:26:27.233Z,13.83
2023-04-17T14:28:54.846Z,13.80
2023-04-17T14:31:22.693Z,13.77
2023-04-17T14:33:50.261Z,13.73
2023-04-17T14:36:17.593Z,13.71
2023-04-17T14:38:48.926Z,13.68
2023-04-17T14:41:16.577Z,13.65
2023-04-17T14:43:44.238Z,13.63
2023-04-17T14:46:11.781Z,13.61
2023-04-17T14:48:54.075Z,13.60
2023-04-17T14:51:24.211Z,13.59
2023-04-17T14:53:52.931Z,13.57
2023-04-17T14:56:21.356Z,13.56
2023-04-17T14:58:49.043Z,13.54
2023-04-17T15:01:16.358Z,13.52
2023-04-17T15:03:47.457Z,13.50
2023-04-17T15:06:16.224Z,13.47
2023-04-17T15:08:43.793Z,13.44
2023-04-17T15:11:11.290Z,13.40
2023-04-17T15:13:41.588Z,13.37
2023-04-17T15:16:09.787Z,13.35
2023-04-17T15:18:39.072Z,13.31
2023-04-17T15:21:06.790Z,13.27
2023-04-17T15:23:35.334Z,13.23
2023-04-17T15:26:02.644Z,13.19
2023-04-17T15:28:33.730Z,13.14
2023-04-17T15:31:03.777Z,13.10
2023-04-17T15:33:32.840Z,13.06
2023-04-17T15:36:00.964Z,13.02
2023-04-17T15:38:28.498Z,12.98
2023-04-17T15:40:55.979Z,12.95
2023-04-17T15:43:23.617Z,12.90
2023-04-17T15:45:51.118Z,12.85
2023-04-17T15:48:18.652Z,12.79
2023-04-17T15:50:46.102Z,12.72
2023-04-17T15:53:13.504Z,12.65
2023-04-17T15:55:40.878Z,12.59
2023-04-17T15:58:08.227Z,12.51
2023-04-17T16:00:37.179Z,12.44
2023-04-17T16:03:07.341Z,12.38
2023-04-17T16:05:35.101Z,12.31
2023-04-17T16:08:02.518Z,12.23
2023-04-17T16:10:29.926Z,12.14
2023-04-17T16:12:57.826Z,12.07
2023-04-17T16:15:25.182Z,12.00
2023-04-17T16:17:52.733Z,11.92
2023-04-17T16:20:20.184Z,11.84
2023-04-17T16:22:47.593Z,11.76
2023-04-17T16:25:14.964Z,11.68
2023-04-17T16:27:42.426Z,11.61
2023-04-17T16:30:10.479Z,11.53
2023-04-17T16:32:38.067Z,11.45
2023-04-17T16:35:06.257Z,11.37
2023-04-17T16:37:34.102Z,11.29
2023-04-17T16:40:04.501Z,11.21
2023-04-17T16:42:32.768Z,11.12
2023-04-17T16:45:00.249Z,11.05
2023-04-17T16:47:30.928Z,10.98
2023-04-17T16:49:58.616Z,10.89
2023-04-17T16:52:26.210Z,10.80
2023-04-17T16:54:53.597Z,10.73
2023-04-17T16:57:21.478Z,10.65
2023-04-17T16:59:48.911Z,10.56
2023-04-17T17:02:16.373Z,10.47
2023-04-17T17:04:45.618Z,10.38
2023-04-17T17:07:13.039Z,10.30
2023-04-17T17:09:40.442Z,10.21
2023-04-17T17:12:07.988Z,10.13
2023-04-17T17:14:36.496Z,10.05
2023-04-17T17:17:03.768Z,9.97
2023-04-17T17:19:32.327Z,9.89
2023-04-17T17:21:59.727Z,9.81
2023-04-17T17:24:26.984Z,9.73
2023-04-17T17:26:54.439Z,9.64
2023-04-17T17:29:21.795Z,9.55
2023-04-17T17:31:49.326Z,9.47
2023-04-17T17:34:26.130Z,9.38
2023-04-17T17:36:54.695Z,9.31
2023-04-17T17:39:22.496Z,9.25
2023-04-17T17:41:49.989Z,9.21
2023-04-17T17:44:17.407Z,9.16
2023-04-17T17:46:44.992Z,9.10
2023-04-17T17:49:12.682Z,9.05
2023-04-17T17:51:40.235Z,8.99
2023-04-17T17:54:07.715Z,8.94
2023-04-17T17:56:35.331Z,8.89
2023-04-17T17:59:02.832Z,8.84
2023-04-17T18:01:30.771Z,8.80
2023-04-17T18:03:59.061Z,8.76
2023-04-17T18:06:27.621Z,8.71
2023-04-17T18:08:55.260Z,8.66
2023-04-17T18:11:24.771Z,8.62
2023-04-17T18:13:52.425Z,8.60
2023-04-17T18:16:21.277Z,8.57
2023-04-17T18:18:49.605Z,8.55
2023-04-17T18:21:17.117Z,8.54
2023-04-17T18:23:44.894Z,8.53
2023-04-17T18:26:12.802Z,8.52
2023-04-17T18:28:40.569Z,8.51
2023-04-17T18:31:08.189Z,8.49
2023-04-17T18:33:36.054Z,8.47
2023-04-17T18:36:04.523Z,8.46
2023-04-17T18:38:33.161Z,8.44
2023-04-17T18:41:01.056Z,8.41
2023-04-17T18:43:29.027Z,8.39
2023-04-17T18:45:56.460Z,8.37
2023-04-17T18:48:24.208Z,8.37
2023-04-17T18:50:51.867Z,8.35
2023-04-17T18:53:19.544Z,8.32
2023-04-17T18:55:47.039Z,8.30
2023-04-17T18:58:14.683Z,8.27
2023-04-17T19:00:42.074Z,8.25
2023-04-17T19:03:10.072Z,8.22
2023-04-17T19:05:37.959Z,8.19
2023-04-17T19:08:05.674Z,8.18
2023-04-17T19:10:33.416Z,8.16
2023-04-17T19:13:01.123Z,8.15
2023-04-17T19:15:28.938Z,8.14
2023-04-17T19:17:56.813Z,8.14
2023-04-17T19:20:24.326Z,8.14
2023-04-17T19:22:52.146Z,8.14
2023-04-17T19:25:19.527Z,8.14
2023-04-17T19:27:46.813Z,8.13
2023-04-17T19:30:14.038Z,8.13
2023-04-17T19:32:42.025Z,8.12
2023-04-17T19:35:09.316Z,8.11
2023-04-17T19:37:36.646Z,8.11
2023-04-17T19:40:08.627Z,8.10
2023-04-17T19:42:42.108Z,8.10
2023-04-17T19:45:10.490Z,8.10
2023-04-17T19:47:39.924Z,8.11
2023-04-17T19:50:09.698Z,8.11
2023-04-17T19:52:38.170Z,8.11
2023-04-17T19:55:07.152Z,8.11
2023-04-17T19:57:34.909Z,8.11
2023-04-17T20:00:02.457Z,8.11
2023-04-17T20:02:40.685Z,8.12
2023-04-17T20:05:08.902Z,8.13
2023-04-17T20:07:36.900Z,8.15
2023-04-17T20:10:04.967Z,8.17
2023-04-17T20:12:32.734Z,8.19
2023-04-17T20:15:00.059Z,8.22
2023-04-17T20:17:27.461Z,8.26
2023-04-17T20:19:54.900Z,8.30
2023-04-17T20:22:22.259Z,8.34
2023-04-17T20:24:51.320Z,8.39
2023-04-17T20:27:21.226Z,8.41
2023-04-17T20:29:48.470Z,8.43
2023-04-17T20:32:17.544Z,8.44
2023-04-17T20:34:45.159Z,8.47
2023-04-17T20:37:12.365Z,8.49
2023-04-17T20:39:40.771Z,8.51
2023-04-17T20:42:08.015Z,8.51
2023-04-17T20:44:35.360Z,8.52
2023-04-17T20:47:03.204Z,8.52
2023-04-17T20:49:33.772Z,8.53
2023-04-17T20:52:02.780Z,8.52
2023-04-17T20:54:30.547Z,8.50
2023-04-17T20:56:57.904Z,8.50
2023-04-17T20:59:25.211Z,8.48
2023-04-17T21:01:52.823Z,8.47
2023-04-17T21:04:21.825Z,8.44
2023-04-17T21:06:49.319Z,8.44
2023-04-17T21:09:16.789Z,8.41
2023-04-17T21:11:45.087Z,8.38
2023-04-17T21:14:14.986Z,8.35
2023-04-17T21:16:45.168Z,8.30
2023-04-17T21:19:13.633Z,8.26
2023-04-17T21:21:41.089Z,8.21
2023-04-17T21:24:08.685Z,8.16
2023-04-17T21:26:36.009Z,8.13
2023-04-17T21:29:03.217Z,8.08
2023-04-17T21:31:30.613Z,8.04
2023-04-17T21:33:58.329Z,7.99
2023-04-17T21:36:28.292Z,7.94
2023-04-17T21:38:55.817Z,7.89
2023-04-17T21:41:23.121Z,7.84
2023-04-17T21:43:50.817Z,7.80
2023-04-17T21:46:18.182Z,7.76
2023-04-17T21:48:45.492Z,7.71
2023-04-17T21:51:13.071Z,7.66
2023-04-17T21:53:40.363Z,7.62
2023-04-17T21:56:08.241Z,7.60
2023-04-17T21:58:36.037Z,7.58
2023-04-17T22:01:03.431Z,7.56
2023-04-17T22:03:30.871Z,7.54
2023-04-17T22:05:58.114Z,7.51
2023-04-17T22:08:25.983Z,7.50
2023-04-17T22:10:53.242Z,7.50
2023-04-17T22:13:21.054Z,7.48
2023-04-17T22:15:48.614Z,7.47
2023-04-17T22:18:16.187Z,7.44
2023-04-17T22:20:43.539Z,7.43
2023-04-17T22:23:11.069Z,7.41
2023-04-17T22:25:38.268Z,7.41
2023-04-17T22:28:05.570Z,7.42
2023-04-17T22:30:33.014Z,7.42
2023-04-17T22:33:00.332Z,7.42
2023-04-17T22:35:27.585Z,7.42
2023-04-17T22:37:54.884Z,7.41
2023-04-17T22:40:22.119Z,7.39
2023-04-17T22:42:50.146Z,7.35
2023-04-17T22:45:17.572Z,7.32
2023-04-17T22:47:45.029Z,7.28
2023-04-17T22:50:13.965Z,7.24
2023-04-17T22:52:41.412Z,7.20
2023-04-17T22:55:09.507Z,7.16
2023-04-17T22:57:36.887Z,7.11
2023-04-17T23:00:06.168Z,7.07
2023-04-17T23:02:33.784Z,7.03
2023-04-17T23:05:01.059Z,6.99
2023-04-17T23:07:28.849Z,6.95
2023-04-17T23:09:56.208Z,6.92
2023-04-17T23:12:24.620Z,6.89
2023-04-17T23:14:51.967Z,6.89
2023-04-17T23:17:19.228Z,6.87
2023-04-17T23:19:46.537Z,6.85
2023-04-17T23:22:14.003Z,6.85
2023-04-17T23:24:41.339Z,6.84
2023-04-17T23:27:08.895Z,6.83
2023-04-17T23:29:36.596Z,6.82
2023-04-17T23:32:04.278Z,6.82
2023-04-17T23:34:32.108Z,6.80
2023-04-17T23:36:59.698Z,6.80
2023-04-17T23:39:26.995Z,6.78
2023-04-17T23:41:57.472Z,6.76
2023-04-17T23:44:24.914Z,6.75
2023-04-17T23:46:52.429Z,6.73
2023-04-17T23:49:20.408Z,6.71
2023-04-17T23:51:47.841Z,6.69
2023-04-17T23:54:15.512Z,6.68
2023-04-17T23:56:43.595Z,6.65
2023-04-17T23:59:11.221Z,6.64
